sensor_id;sensor_type;location;lat;lon;timestamp;P1;durP1;ratioP1;P2;durP2;ratioP2
20725;SDS011;10524;48.132;8.518;2023-09-12T00:01:40;12.13;;;8.73;;
20725;SDS011;10524;48.132;8.518;2023-09-12T00:04:06;12.98;;;8.57;;
20725;SDS011;10524;48.132;8.518;2023-09-12T00:06:32;11.13;;;9.50;;
20725;SDS011;10524;48.132;8.518;2023-09-12T00:08:58;11.32;;;8.88;;
20725;SDS011;10524;48.132;8.518;2023-09-12T00:11:23;11.40;;;9.40;;
20725;SDS011;10524;48.132;8.518;2023-09-12T00:13:50;11.52;;;9.02;;
20725;SDS011;10524;48.132;8.518;2023-09-12T00:16:17;11.93;;;9.05;;
20725;SDS011;10524;48.132;8.518;2023-09-12T00:18:42;11.40;;;9.30;;
20725;SDS011;10524;48.132;8.518;2023-09-12T00:21:08;15.15;;;8.85;;
20725;SDS011;10524;48.132;8.518;2023-09-12T00:23:34;13.85;;;8.90;;
20725;SDS011;10524;48.132;8.518;2023-09-12T00:26:00;14.57;;;10.02;;
20725;SDS011;10524;48.132;8.518;2023-09-12T00:28:26;14.55;;;9.95;;
20725;SDS011;10524;48.132;8.518;2023-09-12T00:30:53;14.23;;;10.73;;
20725;SDS011;10524;48.132;8.518;2023-09-12T00:33:18;15.63;;;11.27;;
20725;SDS011;10524;48.132;8.518;2023-09-12T00:35:45;15.20;;;10.70;;
20725;SDS011;10524;48.132;8.518;2023-09-12T00:38:10;14.23;;;10.57;;
20725;SDS011;10524;48.132;8.518;2023-09-12T00:40:36;12.52;;;10.10;;
20725;SDS011;10524;48.132;8.518;2023-09-12T00:43:03;13.48;;;10.15;;
20725;SDS011;10524;48.132;8.518;2023-09-12T00:45:29;13.98;;;10.00;;
20725;SDS011;10524;48.132;8.518;2023-09-12T00:47:55;14.70;;;10.60;;
20725;SDS011;10524;48.132;8.518;2023-09-12T00:50:23;11.90;;;10.15;;
20725;SDS011;10524;48.132;8.518;2023-09-12T00:52:50;14.90;;;9.50;;
20725;SDS011;10524;48.132;8.518;2023-09-12T00:55:17;12.52;;;9.48;;
20725;SDS011;10524;48.132;8.518;2023-09-12T00:57:43;14.32;;;9.85;;
20725;SDS011;10524;48.132;8.518;2023-09-12T01:00:11;14.02;;;9.27;;
20725;SDS011;10524;48.132;8.518;2023-09-12T01:02:38;12.30;;;9.13;;
20725;SDS011;10524;48.132;8.518;2023-09-12T01:05:06;14.02;;;9.70;;
20725;SDS011;10524;48.132;8.518;2023-09-12T01:07:33;12.88;;;9.38;;
20725;SDS011;10524;48.132;8.518;2023-09-12T01:09:59;11.32;;;9.48;;
20725;SDS011;10524;48.132;8.518;2023-09-12T01:12:25;13.13;;;9.70;;
20725;SDS011;10524;48.132;8.518;2023-09-12T01:14:51;16.63;;;10.15;;
20725;SDS011;10524;48.132;8.518;2023-09-12T01:17:16;14.07;;;10.75;;
20725;SDS011;10524;48.132;8.518;2023-09-12T01:19:42;14.73;;;10.63;;
20725;SDS011;10524;48.132;8.518;2023-09-12T01:27:37;14.85;;;10.68;;
20725;SDS011;10524;48.132;8.518;2023-09-12T01:30:08;15.10;;;10.45;;
20725;SDS011;10524;48.132;8.518;2023-09-12T01:32:35;14.13;;;9.30;;
20725;SDS011;10524;48.132;8.518;2023-09-12T01:35:03;11.90;;;9.75;;
20725;SDS011;10524;48.132;8.518;2023-09-12T01:37:30;14.15;;;9.73;;
20725;SDS011;10524;48.132;8.518;2023-09-12T01:39:56;11.45;;;9.40;;
20725;SDS011;10524;48.132;8.518;2023-09-12T01:42:23;15.07;;;9.50;;
20725;SDS011;10524;48.132;8.518;2023-09-12T01:44:54;13.98;;;10.15;;
20725;SDS011;10524;48.132;8.518;2023-09-12T01:47:21;12.07;;;9.13;;
20725;SDS011;10524;48.132;8.518;2023-09-12T01:49:49;13.80;;;10.35;;
20725;SDS011;10524;48.132;8.518;2023-09-12T01:52:17;13.90;;;10.70;;
20725;SDS011;10524;48.132;8.518;2023-09-12T01:54:44;14.55;;;10.65;;
20725;SDS011;10524;48.132;8.518;2023-09-12T01:57:12;14.32;;;10.63;;
20725;SDS011;10524;48.132;8.518;2023-09-12T01:59:38;13.73;;;9.98;;
20725;SDS011;10524;48.132;8.518;2023-09-12T02:02:04;16.00;;;9.85;;
20725;SDS011;10524;48.132;8.518;2023-09-12T02:04:30;12.27;;;10.10;;
20725;SDS011;10524;48.132;8.518;2023-09-12T02:06:56;15.18;;;10.32;;
20725;SDS011;10524;48.132;8.518;2023-09-12T02:09:23;15.25;;;10.77;;
20725;SDS011;10524;48.132;8.518;2023-09-12T02:11:50;14.27;;;10.98;;
20725;SDS011;10524;48.132;8.518;2023-09-12T02:14:16;15.15;;;11.73;;
20725;SDS011;10524;48.132;8.518;2023-09-12T02:16:45;16.90;;;10.65;;
20725;SDS011;10524;48.132;8.518;2023-09-12T02:19:11;14.43;;;10.57;;
20725;SDS011;10524;48.132;8.518;2023-09-12T02:21:37;15.43;;;11.43;;
20725;SDS011;10524;48.132;8.518;2023-09-12T02:24:03;13.65;;;10.27;;
20725;SDS011;10524;48.132;8.518;2023-09-12T02:26:28;18.67;;;10.32;;
20725;SDS011;10524;48.132;8.518;2023-09-12T02:28:54;15.80;;;10.27;;
20725;SDS011;10524;48.132;8.518;2023-09-12T02:31:20;15.48;;;11.68;;
20725;SDS011;10524;48.132;8.518;2023-09-12T02:33:46;17.52;;;10.63;;
20725;SDS011;10524;48.132;8.518;2023-09-12T02:36:13;15.18;;;11.02;;
20725;SDS011;10524;48.132;8.518;2023-09-12T02:38:38;13.23;;;10.23;;
20725;SDS011;10524;48.132;8.518;2023-09-12T02:41:04;15.27;;;11.05;;
20725;SDS011;10524;48.132;8.518;2023-09-12T02:43:30;14.98;;;10.95;;
20725;SDS011;10524;48.132;8.518;2023-09-12T02:45:57;12.82;;;10.70;;
20725;SDS011;10524;48.132;8.518;2023-09-12T02:48:23;11.77;;;10.57;;
20725;SDS011;10524;48.132;8.518;2023-09-12T02:50:49;13.05;;;10.70;;
20725;SDS011;10524;48.132;8.518;2023-09-12T02:53:14;14.02;;;10.43;;
20725;SDS011;10524;48.132;8.518;2023-09-12T02:55:41;14.75;;;10.95;;
20725;SDS011;10524;48.132;8.518;2023-09-12T02:58:07;16.73;;;10.02;;
20725;SDS011;10524;48.132;8.518;2023-09-12T03:00:37;14.70;;;10.38;;
20725;SDS011;10524;48.132;8.518;2023-09-12T03:03:04;12.23;;;9.98;;
20725;SDS011;10524;48.132;8.518;2023-09-12T03:05:29;17.63;;;12.45;;
20725;SDS011;10524;48.132;8.518;2023-09-12T03:07:55;17.60;;;12.15;;
20725;SDS011;10524;48.132;8.518;2023-09-12T03:10:21;16.05;;;12.45;;
20725;SDS011;10524;48.132;8.518;2023-09-12T03:12:47;14.60;;;12.18;;
20725;SDS011;10524;48.132;8.518;2023-09-12T03:15:13;17.08;;;11.57;;
20725;SDS011;10524;48.132;8.518;2023-09-12T03:17:38;14.65;;;11.70;;
20725;SDS011;10524;48.132;8.518;2023-09-12T03:20:04;14.70;;;12.18;;
20725;SDS011;10524;48.132;8.518;2023-09-12T03:22:33;15.38;;;12.45;;
20725;SDS011;10524;48.132;8.518;2023-09-12T03:25:03;15.52;;;12.10;;
20725;SDS011;10524;48.132;8.518;2023-09-12T03:27:31;19.23;;;12.80;;
20725;SDS011;10524;48.132;8.518;2023-09-12T03:29:57;16.50;;;13.10;;
20725;SDS011;10524;48.132;8.518;2023-09-12T03:32:24;17.27;;;12.48;;
20725;SDS011;10524;48.132;8.518;2023-09-12T03:34:50;16.88;;;12.35;;
20725;SDS011;10524;48.132;8.518;2023-09-12T03:37:16;17.17;;;13.00;;
20725;SDS011;10524;48.132;8.518;2023-09-12T03:39:42;16.17;;;12.25;;
20725;SDS011;10524;48.132;8.518;2023-09-12T03:42:08;16.05;;;13.20;;
20725;SDS011;10524;48.132;8.518;2023-09-12T03:44:33;17.42;;;14.10;;
20725;SDS011;10524;48.132;8.518;2023-09-12T03:46:59;18.38;;;12.65;;
20725;SDS011;10524;48.132;8.518;2023-09-12T03:49:25;17.30;;;13.77;;
20725;SDS011;10524;48.132;8.518;2023-09-12T03:51:53;17.10;;;13.00;;
20725;SDS011;10524;48.132;8.518;2023-09-12T03:54:19;18.40;;;14.18;;
20725;SDS011;10524;48.132;8.518;2023-09-12T03:56:44;18.55;;;13.50;;
20725;SDS011;10524;48.132;8.518;2023-09-12T03:59:11;17.85;;;14.05;;
20725;SDS011;10524;48.132;8.518;2023-09-12T04:01:37;18.17;;;14.27;;
20725;SDS011;10524;48.132;8.518;2023-09-12T04:04:03;15.23;;;12.68;;
20725;SDS011;10524;48.132;8.518;2023-09-12T04:06:29;17.15;;;13.38;;
20725;SDS011;10524;48.132;8.518;2023-09-12T04:08:55;21.00;;;14.70;;
20725;SDS011;10524;48.132;8.518;2023-09-12T04:11:21;18.63;;;13.00;;
20725;SDS011;10524;48.132;8.518;2023-09-12T04:13:56;14.63;;;11.77;;
20725;SDS011;10524;48.132;8.518;2023-09-12T04:16:22;17.67;;;11.95;;
20725;SDS011;10524;48.132;8.518;2023-09-12T04:18:48;15.38;;;11.05;;
20725;SDS011;10524;48.132;8.518;2023-09-12T04:21:14;15.18;;;12.02;;
20725;SDS011;10524;48.132;8.518;2023-09-12T04:23:39;16.38;;;12.02;;
20725;SDS011;10524;48.132;8.518;2023-09-12T04:26:06;17.35;;;12.88;;
20725;SDS011;10524;48.132;8.518;2023-09-12T04:28:31;18.17;;;14.38;;
20725;SDS011;10524;48.132;8.518;2023-09-12T04:31:00;15.80;;;12.32;;
20725;SDS011;10524;48.132;8.518;2023-09-12T04:33:29;18.88;;;13.02;;
20725;SDS011;10524;48.132;8.518;2023-09-12T04:35:57;15.18;;;12.43;;
20725;SDS011;10524;48.132;8.518;2023-09-12T04:38:24;16.92;;;12.98;;
20725;SDS011;10524;48.132;8.518;2023-09-12T04:40:54;15.25;;;12.40;;
20725;SDS011;10524;48.132;8.518;2023-09-12T04:43:27;15.27;;;12.80;;
20725;SDS011;10524;48.132;8.518;2023-09-12T04:45:53;14.90;;;13.00;;
20725;SDS011;10524;48.132;8.518;2023-09-12T04:48:20;18.02;;;14.38;;
20725;SDS011;10524;48.132;8.518;2023-09-12T04:50:46;16.20;;;13.70;;
20725;SDS011;10524;48.132;8.518;2023-09-12T04:53:12;21.67;;;15.63;;
20725;SDS011;10524;48.132;8.518;2023-09-12T04:55:38;16.25;;;14.00;;
20725;SDS011;10524;48.132;8.518;2023-09-12T04:58:04;17.60;;;14.85;;
20725;SDS011;10524;48.132;8.518;2023-09-12T05:00:32;17.10;;;14.85;;
20725;SDS011;10524;48.132;8.518;2023-09-12T05:02:58;18.75;;;14.98;;
20725;SDS011;10524;48.132;8.518;2023-09-12T05:05:24;17.48;;;15.18;;
20725;SDS011;10524;48.132;8.518;2023-09-12T05:07:50;18.77;;;16.25;;
20725;SDS011;10524;48.132;8.518;2023-09-12T05:10:19;20.67;;;15.38;;
20725;SDS011;10524;48.132;8.518;2023-09-12T05:12:45;16.73;;;13.80;;
20725;SDS011;10524;48.132;8.518;2023-09-12T05:15:10;17.45;;;13.93;;
20725;SDS011;10524;48.132;8.518;2023-09-12T05:17:36;15.93;;;12.73;;
20725;SDS011;10524;48.132;8.518;2023-09-12T05:20:02;17.92;;;13.07;;
20725;SDS011;10524;48.132;8.518;2023-09-12T05:22:30;14.30;;;11.98;;
20725;SDS011;10524;48.132;8.518;2023-09-12T05:24:56;14.02;;;12.10;;
20725;SDS011;10524;48.132;8.518;2023-09-12T05:27:21;14.63;;;11.85;;
20725;SDS011;10524;48.132;8.518;2023-09-12T05:29:47;14.65;;;11.63;;
20725;SDS011;10524;48.132;8.518;2023-09-12T05:32:13;15.65;;;11.98;;
20725;SDS011;10524;48.132;8.518;2023-09-12T05:34:40;16.00;;;12.10;;
20725;SDS011;10524;48.132;8.518;2023-09-12T05:37:06;13.85;;;12.38;;
20725;SDS011;10524;48.132;8.518;2023-09-12T05:39:32;15.05;;;11.63;;
20725;SDS011;10524;48.132;8.518;2023-09-12T05:41:58;14.30;;;10.60;;
20725;SDS011;10524;48.132;8.518;2023-09-12T05:44:24;11.07;;;9.88;;
20725;SDS011;10524;48.132;8.518;2023-09-12T05:46:50;11.80;;;9.45;;
20725;SDS011;10524;48.132;8.518;2023-09-12T05:49:15;11.85;;;9.80;;
20725;SDS011;10524;48.132;8.518;2023-09-12T05:51:42;13.57;;;8.90;;
20725;SDS011;10524;48.132;8.518;2023-09-12T05:54:09;10.23;;;8.70;;
20725;SDS011;10524;48.132;8.518;2023-09-12T05:56:36;8.93;;;7.88;;
20725;SDS011;10524;48.132;8.518;2023-09-12T05:59:02;9.57;;;7.32;;
20725;SDS011;10524;48.132;8.518;2023-09-12T06:01:29;8.13;;;7.32;;
20725;SDS011;10524;48.132;8.518;2023-09-12T06:03:55;9.90;;;7.57;;
20725;SDS011;10524;48.132;8.518;2023-09-12T06:06:21;10.38;;;8.57;;
20725;SDS011;10524;48.132;8.518;2023-09-12T06:08:47;13.93;;;8.32;;
20725;SDS011;10524;48.132;8.518;2023-09-12T06:11:13;11.05;;;7.90;;
20725;SDS011;10524;48.132;8.518;2023-09-12T06:13:39;9.75;;;7.95;;
20725;SDS011;10524;48.132;8.518;2023-09-12T06:16:05;10.20;;;8.75;;
20725;SDS011;10524;48.132;8.518;2023-09-12T06:18:34;11.00;;;9.38;;
20725;SDS011;10524;48.132;8.518;2023-09-12T06:20:59;13.88;;;9.05;;
20725;SDS011;10524;48.132;8.518;2023-09-12T06:23:29;9.80;;;8.32;;
20725;SDS011;10524;48.132;8.518;2023-09-12T06:25:55;9.30;;;8.35;;
20725;SDS011;10524;48.132;8.518;2023-09-12T06:28:28;11.00;;;8.77;;
20725;SDS011;10524;48.132;8.518;2023-09-12T06:30:55;9.05;;;7.97;;
20725;SDS011;10524;48.132;8.518;2023-09-12T06:33:22;10.77;;;8.80;;
20725;SDS011;10524;48.132;8.518;2023-09-12T06:35:49;12.48;;;9.50;;
20725;SDS011;10524;48.132;8.518;2023-09-12T06:38:15;11.55;;;9.15;;
20725;SDS011;10524;48.132;8.518;2023-09-12T06:40:44;11.00;;;8.98;;
20725;SDS011;10524;48.132;8.518;2023-09-12T06:43:11;10.43;;;8.93;;
20725;SDS011;10524;48.132;8.518;2023-09-12T06:45:37;8.88;;;7.97;;
20725;SDS011;10524;48.132;8.518;2023-09-12T06:48:03;10.73;;;8.43;;
20725;SDS011;10524;48.132;8.518;2023-09-12T06:50:30;9.20;;;7.45;;
20725;SDS011;10524;48.132;8.518;2023-09-12T06:52:55;9.27;;;7.80;;
20725;SDS011;10524;48.132;8.518;2023-09-12T06:55:21;8.13;;;7.35;;
20725;SDS011;10524;48.132;8.518;2023-09-12T06:57:47;7.50;;;6.57;;
20725;SDS011;10524;48.132;8.518;2023-09-12T07:00:13;10.45;;;6.03;;
20725;SDS011;10524;48.132;8.518;2023-09-12T07:02:39;8.43;;;7.00;;
20725;SDS011;10524;48.132;8.518;2023-09-12T07:05:04;9.18;;;7.03;;
20725;SDS011;10524;48.132;8.518;2023-09-12T07:07:30;11.85;;;8.25;;
20725;SDS011;10524;48.132;8.518;2023-09-12T07:09:57;9.68;;;7.82;;
20725;SDS011;10524;48.132;8.518;2023-09-12T07:12:24;11.02;;;7.60;;
20725;SDS011;10524;48.132;8.518;2023-09-12T07:14:54;7.93;;;7.22;;
20725;SDS011;10524;48.132;8.518;2023-09-12T07:17:21;8.55;;;7.47;;
20725;SDS011;10524;48.132;8.518;2023-09-12T07:19:47;11.73;;;8.65;;
20725;SDS011;10524;48.132;8.518;2023-09-12T07:22:13;10.38;;;8.48;;
20725;SDS011;10524;48.132;8.518;2023-09-12T07:24:38;11.15;;;8.40;;
20725;SDS011;10524;48.132;8.518;2023-09-12T07:27:04;10.93;;;8.75;;
20725;SDS011;10524;48.132;8.518;2023-09-12T07:29:30;11.27;;;8.82;;
20725;SDS011;10524;48.132;8.518;2023-09-12T07:31:56;11.20;;;8.50;;
20725;SDS011;10524;48.132;8.518;2023-09-12T07:34:23;8.60;;;7.70;;
20725;SDS011;10524;48.132;8.518;2023-09-12T07:36:49;8.68;;;7.80;;
20725;SDS011;10524;48.132;8.518;2023-09-12T07:39:16;8.88;;;7.97;;
20725;SDS011;10524;48.132;8.518;2023-09-12T07:41:42;9.52;;;7.95;;
20725;SDS011;10524;48.132;8.518;2023-09-12T07:44:08;9.55;;;8.23;;
20725;SDS011;10524;48.132;8.518;2023-09-12T07:46:39;9.00;;;8.07;;
20725;SDS011;10524;48.132;8.518;2023-09-12T07:49:04;9.95;;;8.38;;
20725;SDS011;10524;48.132;8.518;2023-09-12T07:51:30;8.68;;;7.78;;
20725;SDS011;10524;48.132;8.518;2023-09-12T07:53:56;10.05;;;8.05;;
20725;SDS011;10524;48.132;8.518;2023-09-12T07:56:22;12.57;;;8.40;;
20725;SDS011;10524;48.132;8.518;2023-09-12T07:58:48;11.23;;;8.30;;
20725;SDS011;10524;48.132;8.518;2023-09-12T08:01:14;8.80;;;7.90;;
20725;SDS011;10524;48.132;8.518;2023-09-12T08:03:41;9.45;;;7.85;;
20725;SDS011;10524;48.132;8.518;2023-09-12T08:06:08;8.95;;;7.68;;
20725;SDS011;10524;48.132;8.518;2023-09-12T08:08:34;8.60;;;7.65;;
20725;SDS011;10524;48.132;8.518;2023-09-12T08:11:00;9.50;;;7.53;;
20725;SDS011;10524;48.132;8.518;2023-09-12T08:13:26;8.23;;;6.75;;
20725;SDS011;10524;48.132;8.518;2023-09-12T08:15:53;9.40;;;6.93;;
20725;SDS011;10524;48.132;8.518;2023-09-12T08:18:19;7.85;;;6.78;;
20725;SDS011;10524;48.132;8.518;2023-09-12T08:20:45;8.30;;;6.95;;
20725;SDS011;10524;48.132;8.518;2023-09-12T08:23:11;8.38;;;7.00;;
20725;SDS011;10524;48.132;8.518;2023-09-12T08:25:37;7.45;;;6.47;;
20725;SDS011;10524;48.132;8.518;2023-09-12T08:28:04;7.78;;;6.32;;
20725;SDS011;10524;48.132;8.518;2023-09-12T08:30:30;8.20;;;6.13;;
20725;SDS011;10524;48.132;8.518;2023-09-12T08:32:55;7.38;;;6.60;;
20725;SDS011;10524;48.132;8.518;2023-09-12T08:35:21;8.30;;;6.90;;
20725;SDS011;10524;48.132;8.518;2023-09-12T08:37:47;6.88;;;6.22;;
20725;SDS011;10524;48.132;8.518;2023-09-12T08:40:13;9.57;;;6.68;;
20725;SDS011;10524;48.132;8.518;2023-09-12T08:45:07;7.65;;;6.60;;
20725;SDS011;10524;48.132;8.518;2023-09-12T08:47:42;10.57;;;6.13;;
20725;SDS011;10524;48.132;8.518;2023-09-12T08:50:15;8.07;;;7.20;;
20725;SDS011;10524;48.132;8.518;2023-09-12T08:52:42;8.18;;;7.38;;
20725;SDS011;10524;48.132;8.518;2023-09-12T08:55:10;8.80;;;7.75;;
20725;SDS011;10524;48.132;8.518;2023-09-12T08:57:40;9.93;;;7.53;;
20725;SDS011;10524;48.132;8.518;2023-09-12T09:00:07;7.72;;;6.93;;
20725;SDS011;10524;48.132;8.518;2023-09-12T09:02:35;6.90;;;6.22;;
20725;SDS011;10524;48.132;8.518;2023-09-12T09:05:03;11.13;;;7.10;;
20725;SDS011;10524;48.132;8.518;2023-09-12T09:07:33;8.82;;;7.15;;
20725;SDS011;10524;48.132;8.518;2023-09-12T09:10:06;8.13;;;7.40;;
20725;SDS011;10524;48.132;8.518;2023-09-12T09:12:35;9.15;;;7.10;;
20725;SDS011;10524;48.132;8.518;2023-09-12T09:17:45;7.47;;;6.35;;
20725;SDS011;10524;48.132;8.518;2023-09-12T09:20:21;8.65;;;6.97;;
20725;SDS011;10524;48.132;8.518;2023-09-12T09:23:04;10.77;;;7.50;;
20725;SDS011;10524;48.132;8.518;2023-09-12T09:25:32;8.15;;;6.95;;
20725;SDS011;10524;48.132;8.518;2023-09-12T09:28:01;10.23;;;7.70;;
20725;SDS011;10524;48.132;8.518;2023-09-12T09:30:41;9.20;;;7.38;;
20725;SDS011;10524;48.132;8.518;2023-09-12T09:33:09;8.43;;;7.60;;
20725;SDS011;10524;48.132;8.518;2023-09-12T09:35:35;7.50;;;6.80;;
20725;SDS011;10524;48.132;8.518;2023-09-12T09:38:02;8.48;;;7.00;;
20725;SDS011;10524;48.132;8.518;2023-09-12T09:40:28;8.60;;;6.75;;
20725;SDS011;10524;48.132;8.518;2023-09-12T09:43:00;6.50;;;5.97;;
20725;SDS011;10524;48.132;8.518;2023-09-12T09:45:28;6.90;;;6.20;;
20725;SDS011;10524;48.132;8.518;2023-09-12T09:48:05;7.95;;;6.10;;
20725;SDS011;10524;48.132;8.518;2023-09-12T09:50:34;7.47;;;5.70;;
20725;SDS011;10524;48.132;8.518;2023-09-12T09:53:02;8.80;;;6.50;;
20725;SDS011;10524;48.132;8.518;2023-09-12T09:55:29;8.60;;;5.97;;
20725;SDS011;10524;48.132;8.518;2023-09-12T09:57:57;8.70;;;6.53;;
20725;SDS011;10524;48.132;8.518;2023-09-12T10:00:23;6.55;;;5.82;;
20725;SDS011;10524;48.132;8.518;2023-09-12T10:02:50;6.95;;;6.15;;
20725;SDS011;10524;48.132;8.518;2023-09-12T10:05:17;6.53;;;5.72;;
20725;SDS011;10524;48.132;8.518;2023-09-12T10:07:45;8.65;;;6.38;;
20725;SDS011;10524;48.132;8.518;2023-09-12T10:10:16;8.65;;;6.38;;
20725;SDS011;10524;48.132;8.518;2023-09-12T10:12:58;8.02;;;6.43;;
20725;SDS011;10524;48.132;8.518;2023-09-12T10:15:27;7.43;;;5.78;;
20725;SDS011;10524;48.132;8.518;2023-09-12T10:17:56;7.47;;;5.35;;
20725;SDS011;10524;48.132;8.518;2023-09-12T10:20:26;8.10;;;5.93;;
20725;SDS011;10524;48.132;8.518;2023-09-12T10:23:00;7.00;;;5.65;;
20725;SDS011;10524;48.132;8.518;2023-09-12T10:25:35;6.10;;;5.50;;
20725;SDS011;10524;48.132;8.518;2023-09-12T10:28:02;5.82;;;5.30;;
20725;SDS011;10524;48.132;8.518;2023-09-12T10:30:29;7.97;;;6.35;;
20725;SDS011;10524;48.132;8.518;2023-09-12T10:32:56;5.63;;;5.13;;
20725;SDS011;10524;48.132;8.518;2023-09-12T10:35:23;6.53;;;4.85;;
20725;SDS011;10524;48.132;8.518;2023-09-12T10:37:49;8.57;;;5.68;;
20725;SDS011;10524;48.132;8.518;2023-09-12T10:40:17;5.55;;;5.05;;
20725;SDS011;10524;48.132;8.518;2023-09-12T10:42:44;6.03;;;5.40;;
20725;SDS011;10524;48.132;8.518;2023-09-12T10:45:11;6.50;;;5.53;;
20725;SDS011;10524;48.132;8.518;2023-09-12T10:47:36;6.50;;;5.43;;
20725;SDS011;10524;48.132;8.518;2023-09-12T10:50:03;6.18;;;5.50;;
20725;SDS011;10524;48.132;8.518;2023-09-12T10:52:29;8.52;;;5.30;;
20725;SDS011;10524;48.132;8.518;2023-09-12T10:54:56;7.65;;;5.75;;
20725;SDS011;10524;48.132;8.518;2023-09-12T10:57:22;6.65;;;5.32;;
20725;SDS011;10524;48.132;8.518;2023-09-12T11:02:44;5.82;;;5.18;;
20725;SDS011;10524;48.132;8.518;2023-09-12T11:07:57;6.75;;;5.30;;
20725;SDS011;10524;48.132;8.518;2023-09-12T11:10:24;5.75;;;5.25;;
20725;SDS011;10524;48.132;8.518;2023-09-12T11:12:52;5.90;;;5.25;;
20725;SDS011;10524;48.132;8.518;2023-09-12T11:15:19;6.47;;;5.18;;
20725;SDS011;10524;48.132;8.518;2023-09-12T11:17:48;5.10;;;4.50;;
20725;SDS011;10524;48.132;8.518;2023-09-12T11:23:23;5.45;;;4.95;;
20725;SDS011;10524;48.132;8.518;2023-09-12T11:26:06;6.10;;;4.95;;
20725;SDS011;10524;48.132;8.518;2023-09-12T11:28:32;5.60;;;5.10;;
20725;SDS011;10524;48.132;8.518;2023-09-12T11:30:58;7.00;;;5.80;;
20725;SDS011;10524;48.132;8.518;2023-09-12T11:33:24;6.50;;;5.85;;
20725;SDS011;10524;48.132;8.518;2023-09-12T11:35:54;5.97;;;5.30;;
20725;SDS011;10524;48.132;8.518;2023-09-12T11:40:53;5.55;;;4.95;;
20725;SDS011;10524;48.132;8.518;2023-09-12T11:43:22;8.15;;;5.30;;
20725;SDS011;10524;48.132;8.518;2023-09-12T11:45:49;6.07;;;4.80;;
20725;SDS011;10524;48.132;8.518;2023-09-12T11:48:16;6.95;;;4.50;;
20725;SDS011;10524;48.132;8.518;2023-09-12T11:50:48;6.50;;;4.53;;
20725;SDS011;10524;48.132;8.518;2023-09-12T11:53:21;5.68;;;4.60;;
20725;SDS011;10524;48.132;8.518;2023-09-12T11:55:51;5.60;;;5.10;;
20725;SDS011;10524;48.132;8.518;2023-09-12T11:58:19;5.07;;;4.60;;
20725;SDS011;10524;48.132;8.518;2023-09-12T12:00:52;5.32;;;4.90;;
20725;SDS011;10524;48.132;8.518;2023-09-12T12:03:20;8.57;;;4.60;;
20725;SDS011;10524;48.132;8.518;2023-09-12T12:05:47;5.40;;;4.82;;
20725;SDS011;10524;48.132;8.518;2023-09-12T12:08:13;6.38;;;4.60;;
20725;SDS011;10524;48.132;8.518;2023-09-12T12:10:41;7.43;;;4.80;;
20725;SDS011;10524;48.132;8.518;2023-09-12T12:13:10;5.28;;;4.70;;
20725;SDS011;10524;48.132;8.518;2023-09-12T12:15:37;6.53;;;4.57;;
20725;SDS011;10524;48.132;8.518;2023-09-12T12:18:03;5.43;;;4.60;;
20725;SDS011;10524;48.132;8.518;2023-09-12T12:20:29;4.70;;;4.05;;
20725;SDS011;10524;48.132;8.518;2023-09-12T12:22:56;5.82;;;4.90;;
20725;SDS011;10524;48.132;8.518;2023-09-12T12:25:21;7.90;;;4.25;;
20725;SDS011;10524;48.132;8.518;2023-09-12T12:27:47;6.80;;;4.43;;
20725;SDS011;10524;48.132;8.518;2023-09-12T12:30:13;7.05;;;5.43;;
20725;SDS011;10524;48.132;8.518;2023-09-12T12:32:40;6.38;;;4.70;;
20725;SDS011;10524;48.132;8.518;2023-09-12T12:35:07;5.13;;;4.43;;
20725;SDS011;10524;48.132;8.518;2023-09-12T12:37:41;5.32;;;4.68;;
20725;SDS011;10524;48.132;8.518;2023-09-12T12:40:11;5.15;;;4.68;;
20725;SDS011;10524;48.132;8.518;2023-09-12T12:42:38;6.00;;;4.53;;
20725;SDS011;10524;48.132;8.518;2023-09-12T12:45:10;5.32;;;4.57;;
20725;SDS011;10524;48.132;8.518;2023-09-12T12:47:43;5.30;;;4.80;;
20725;SDS011;10524;48.132;8.518;2023-09-12T12:50:13;5.28;;;4.10;;
20725;SDS011;10524;48.132;8.518;2023-09-12T12:52:40;4.80;;;4.15;;
20725;SDS011;10524;48.132;8.518;2023-09-12T12:55:08;5.47;;;4.22;;
20725;SDS011;10524;48.132;8.518;2023-09-12T12:57:36;4.22;;;3.90;;
20725;SDS011;10524;48.132;8.518;2023-09-12T13:00:05;5.75;;;3.92;;
20725;SDS011;10524;48.132;8.518;2023-09-12T13:02:39;4.30;;;3.90;;
20725;SDS011;10524;48.132;8.518;2023-09-12T13:05:07;5.20;;;4.00;;
20725;SDS011;10524;48.132;8.518;2023-09-12T13:07:51;3.85;;;3.55;;
20725;SDS011;10524;48.132;8.518;2023-09-12T13:10:17;4.20;;;3.80;;
20725;SDS011;10524;48.132;8.518;2023-09-12T13:12:43;4.20;;;3.80;;
20725;SDS011;10524;48.132;8.518;2023-09-12T13:15:11;5.10;;;4.18;;
20725;SDS011;10524;48.132;8.518;2023-09-12T13:17:37;4.93;;;3.65;;
20725;SDS011;10524;48.132;8.518;2023-09-12T13:20:03;5.13;;;3.85;;
20725;SDS011;10524;48.132;8.518;2023-09-12T13:22:32;5.38;;;3.50;;
20725;SDS011;10524;48.132;8.518;2023-09-12T13:24:58;3.90;;;3.60;;
20725;SDS011;10524;48.132;8.518;2023-09-12T13:27:24;4.70;;;3.42;;
20725;SDS011;10524;48.132;8.518;2023-09-12T13:29:50;4.32;;;3.88;;
20725;SDS011;10524;48.132;8.518;2023-09-12T13:32:15;5.95;;;4.25;;
20725;SDS011;10524;48.132;8.518;2023-09-12T13:34:43;4.70;;;4.10;;
20725;SDS011;10524;48.132;8.518;2023-09-12T13:37:12;4.18;;;3.78;;
20725;SDS011;10524;48.132;8.518;2023-09-12T13:39:38;5.68;;;4.20;;
20725;SDS011;10524;48.132;8.518;2023-09-12T13:42:05;5.88;;;4.40;;
20725;SDS011;10524;48.132;8.518;2023-09-12T13:44:33;6.82;;;4.28;;
20725;SDS011;10524;48.132;8.518;2023-09-12T13:46:59;5.47;;;4.03;;
20725;SDS011;10524;48.132;8.518;2023-09-12T13:49:25;4.97;;;4.35;;
20725;SDS011;10524;48.132;8.518;2023-09-12T13:51:50;9.98;;;5.57;;
20725;SDS011;10524;48.132;8.518;2023-09-12T13:54:16;7.75;;;5.45;;
20725;SDS011;10524;48.132;8.518;2023-09-12T13:56:42;6.50;;;5.88;;
20725;SDS011;10524;48.132;8.518;2023-09-12T13:59:08;7.07;;;5.80;;
20725;SDS011;10524;48.132;8.518;2023-09-12T14:01:34;8.27;;;6.13;;
20725;SDS011;10524;48.132;8.518;2023-09-12T14:03:59;10.30;;;6.70;;
20725;SDS011;10524;48.132;8.518;2023-09-12T14:06:26;7.00;;;6.30;;
20725;SDS011;10524;48.132;8.518;2023-09-12T14:08:52;6.63;;;5.90;;
20725;SDS011;10524;48.132;8.518;2023-09-12T14:11:18;7.90;;;6.15;;
20725;SDS011;10524;48.132;8.518;2023-09-12T14:13:43;8.10;;;6.22;;
20725;SDS011;10524;48.132;8.518;2023-09-12T14:16:09;7.38;;;6.40;;
20725;SDS011;10524;48.132;8.518;2023-09-12T14:18:35;7.57;;;5.60;;
20725;SDS011;10524;48.132;8.518;2023-09-12T14:21:01;7.18;;;6.22;;
20725;SDS011;10524;48.132;8.518;2023-09-12T14:23:27;6.97;;;5.60;;
20725;SDS011;10524;48.132;8.518;2023-09-12T14:25:53;7.78;;;5.90;;
20725;SDS011;10524;48.132;8.518;2023-09-12T14:28:19;6.65;;;5.68;;
20725;SDS011;10524;48.132;8.518;2023-09-12T14:30:45;8.38;;;5.90;;
20725;SDS011;10524;48.132;8.518;2023-09-12T14:33:11;6.95;;;5.70;;
20725;SDS011;10524;48.132;8.518;2023-09-12T14:35:37;5.88;;;5.30;;
20725;SDS011;10524;48.132;8.518;2023-09-12T14:38:03;7.85;;;5.95;;
20725;SDS011;10524;48.132;8.518;2023-09-12T14:40:29;7.63;;;5.68;;
20725;SDS011;10524;48.132;8.518;2023-09-12T14:42:55;6.22;;;5.30;;
20725;SDS011;10524;48.132;8.518;2023-09-12T14:45:21;7.75;;;5.72;;
20725;SDS011;10524;48.132;8.518;2023-09-12T14:47:47;6.30;;;5.70;;
20725;SDS011;10524;48.132;8.518;2023-09-12T14:50:13;6.65;;;5.68;;
20725;SDS011;10524;48.132;8.518;2023-09-12T14:52:38;7.22;;;5.80;;
20725;SDS011;10524;48.132;8.518;2023-09-12T14:55:05;9.02;;;5.50;;
20725;SDS011;10524;48.132;8.518;2023-09-12T14:57:33;7.93;;;5.95;;
20725;SDS011;10524;48.132;8.518;2023-09-12T14:59:59;7.10;;;6.18;;